createdAt,value
2022-11-10T00:02:50.783Z,69.53
2022-11-10T00:07:47.018Z,78.68
2022-11-10T00:12:43.241Z,77.32
2022-11-10T00:17:39.502Z,89.78
2022-11-10T00:22:36.448Z,92.85
2022-11-10T00:27:33.271Z,91.70
2022-11-10T00:32:29.516Z,95.18
2022-11-10T00:37:25.893Z,95.00
2022-11-10T00:42:22.134Z,104.93
2022-11-10T00:47:18.355Z,105.78
2022-11-10T00:52:14.544Z,109.03
2022-11-10T00:57:10.814Z,103.53
2022-11-10T01:02:07.112Z,99.57
2022-11-10T01:07:03.417Z,108.25
2022-11-10T01:11:59.734Z,101.00
2022-11-10T01:16:55.950Z,105.25
2022-11-10T01:21:52.367Z,109.47
2022-11-10T01:26:48.626Z,116.10
2022-11-10T01:31:44.944Z,109.72
2022-11-10T01:36:41.156Z,118.10
2022-11-10T01:41:37.351Z,113.93
2022-11-10T01:46:33.585Z,117.22
2022-11-10T01:51:32.355Z,113.07
2022-11-10T01:56:30.495Z,117.85
2022-11-10T02:01:26.904Z,114.53
2022-11-10T02:06:25.230Z,113.25
2022-11-10T02:11:21.853Z,111.30
2022-11-10T02:16:19.038Z,111.53
2022-11-10T02:21:19.083Z,111.88
2022-11-10T02:26:17.459Z,114.80
2022-11-10T02:31:13.718Z,112.95
2022-11-10T02:36:09.998Z,114.22
2022-11-10T02:41:06.254Z,115.13
2022-11-10T02:46:02.451Z,112.28
2022-11-10T02:50:58.813Z,115.18
2022-11-10T02:55:55.157Z,111.88
2022-11-10T03:00:51.452Z,116.57
2022-11-10T03:05:47.691Z,112.82
2022-11-10T03:10:43.920Z,116.20
2022-11-10T03:15:40.143Z,113.22
2022-11-10T03:20:36.492Z,113.78
2022-11-10T03:25:34.172Z,111.28
2022-11-10T03:30:30.427Z,113.53
2022-11-10T03:35:26.645Z,113.57
2022-11-10T03:40:22.910Z,109.22
2022-11-10T03:45:19.185Z,114.43
2022-11-10T03:50:16.088Z,106.00
2022-11-10T03:55:13.798Z,116.25
2022-11-10T04:00:10.612Z,113.97
2022-11-10T04:05:26.130Z,115.97
2022-11-10T04:10:22.379Z,115.40
2022-11-10T04:15:37.486Z,104.50
2022-11-10T04:20:33.705Z,111.03
2022-11-10T04:25:29.984Z,105.07
2022-11-10T04:30:26.195Z,104.32
2022-11-10T04:35:22.379Z,104.43
2022-11-10T04:40:18.733Z,102.03
2022-11-10T04:45:14.981Z,110.03
2022-11-10T04:50:11.321Z,110.25
2022-11-10T04:55:07.768Z,109.93
2022-11-10T05:00:04.816Z,110.55
2022-11-10T05:05:01.052Z,110.03
2022-11-10T05:09:57.295Z,107.95
2022-11-10T05:14:53.565Z,104.10
2022-11-10T05:19:49.818Z,110.25
2022-11-10T05:24:46.065Z,104.05
2022-11-10T05:29:42.287Z,108.13
2022-11-10T05:34:39.583Z,102.50
2022-11-10T05:39:35.941Z,105.95
2022-11-10T05:44:32.167Z,109.43
2022-11-10T05:49:28.466Z,103.30
2022-11-10T05:54:24.741Z,107.22
2022-11-10T05:59:20.983Z,109.05
2022-11-10T06:04:17.512Z,104.25
2022-11-10T06:09:13.819Z,106.28
2022-11-10T06:14:10.026Z,106.00
2022-11-10T06:19:07.353Z,111.50
2022-11-10T06:24:03.710Z,109.07
2022-11-10T06:29:00.062Z,105.63
2022-11-10T06:33:56.397Z,109.72
2022-11-10T06:38:52.910Z,105.20
2022-11-10T06:43:49.394Z,110.68
2022-11-10T06:48:45.621Z,102.45
2022-11-10T06:53:42.179Z,102.13
2022-11-10T06:58:38.462Z,98.90
2022-11-10T07:03:38.838Z,98.32
2022-11-10T07:08:40.808Z,103.45
2022-11-10T07:13:37.191Z,104.55
2022-11-10T07:18:33.820Z,105.28
2022-11-10T07:23:30.395Z,98.60
2022-11-10T07:28:28.455Z,98.85
2022-11-10T07:33:25.147Z,105.68
2022-11-10T07:38:21.708Z,106.13
2022-11-10T07:43:18.218Z,100.07
2022-11-10T07:48:14.624Z,90.57
2022-11-10T07:53:12.240Z,96.13
2022-11-10T07:58:09.255Z,98.07
2022-11-10T08:03:06.951Z,98.10
2022-11-10T08:08:03.888Z,97.03
2022-11-10T08:13:01.155Z,92.25
2022-11-10T08:18:00.830Z,92.00
2022-11-10T08:23:01.047Z,93.60
2022-11-10T08:27:58.625Z,91.85
2022-11-10T08:32:56.047Z,91.07
2022-11-10T08:37:52.475Z,82.07
2022-11-10T08:42:48.824Z,83.13
2022-11-10T08:47:45.143Z,83.60
2022-11-10T08:52:41.379Z,71.30
2022-11-10T08:57:37.605Z,72.95
2022-11-10T09:02:33.872Z,75.38
2022-11-10T09:07:31.180Z,73.97
2022-11-10T09:12:27.701Z,74.50
2022-11-10T09:17:25.276Z,78.82
2022-11-10T09:22:21.568Z,83.43
2022-11-10T09:27:18.032Z,80.90
2022-11-10T09:32:14.311Z,76.80
2022-11-10T09:37:10.647Z,65.22
2022-11-10T09:42:22.750Z,62.58
2022-11-10T09:47:56.684Z,62.78
2022-11-10T09:52:54.275Z,61.95
2022-11-10T09:57:53.169Z,62.03
2022-11-10T10:02:53.707Z,60.63
2022-11-10T10:07:49.937Z,50.03
2022-11-10T10:12:46.277Z,52.72
2022-11-10T10:17:42.507Z,48.08
2022-11-10T10:22:55.723Z,48.45
2022-11-10T10:32:49.142Z,45.83
2022-11-10T10:37:45.758Z,43.97
2022-11-10T10:42:41.987Z,43.30
2022-11-10T10:47:38.960Z,38.92
2022-11-10T10:52:35.344Z,43.60
2022-11-10T10:57:32.033Z,34.95
2022-11-10T11:02:29.681Z,36.35
2022-11-10T11:07:26.016Z,38.28
2022-11-10T11:12:22.355Z,35.08
2022-11-10T11:17:21.111Z,33.47
2022-11-10T11:22:37.469Z,33.13
2022-11-10T11:27:46.268Z,32.05
2022-11-10T11:33:00.357Z,33.83
2022-11-10T11:38:14.839Z,33.63
2022-11-10T11:43:19.077Z,31.85
2022-11-10T11:48:34.539Z,32.13
2022-11-10T11:53:50.428Z,31.58
2022-11-10T11:59:03.539Z,31.23
2022-11-10T12:08:58.870Z,29.17
2022-11-10T12:14:03.773Z,29.02
2022-11-10T12:19:18.909Z,25.00
2022-11-10T12:24:21.032Z,26.98
2022-11-10T12:29:36.433Z,24.50
2022-11-10T12:34:50.158Z,22.52
2022-11-10T12:39:49.930Z,22.23
2022-11-10T12:44:57.308Z,23.75
2022-11-10T12:50:01.739Z,23.63
2022-11-10T12:54:58.544Z,23.33
2022-11-10T12:59:56.714Z,23.85
2022-11-10T13:05:17.706Z,24.65
2022-11-10T13:10:24.673Z,23.15
2022-11-10T13:15:39.351Z,25.95
2022-11-10T13:20:41.636Z,24.23
2022-11-10T13:25:37.920Z,23.55
2022-11-10T13:30:43.668Z,24.05
2022-11-10T13:35:39.865Z,25.73
2022-11-10T13:40:36.538Z,26.30
2022-11-10T13:45:35.271Z,26.00
2022-11-10T13:50:41.012Z,28.00
2022-11-10T13:55:56.161Z,24.85
2022-11-10T14:01:12.444Z,24.15
2022-11-10T14:06:11.954Z,25.15
2022-11-10T14:11:18.512Z,25.48
2022-11-10T14:16:19.387Z,24.63
2022-11-10T14:21:25.485Z,25.20
2022-11-10T14:26:40.478Z,27.58
2022-11-10T14:31:37.174Z,24.88
2022-11-10T14:36:33.942Z,26.73
2022-11-10T14:41:30.281Z,24.65
2022-11-10T14:46:26.654Z,21.63
2022-11-10T14:51:22.974Z,21.35
2022-11-10T14:56:22.134Z,22.50
2022-11-10T15:01:27.318Z,20.30
2022-11-10T15:06:23.960Z,20.00
2022-11-10T15:11:33.185Z,20.95
2022-11-10T15:16:33.086Z,20.23
2022-11-10T15:21:33.717Z,19.73
2022-11-10T15:26:33.526Z,21.20
2022-11-10T15:31:31.238Z,22.73
2022-11-10T15:36:32.019Z,21.05
2022-11-10T15:41:30.794Z,20.70
2022-11-10T15:46:27.224Z,21.33
2022-11-10T15:51:26.372Z,18.48
2022-11-10T15:56:24.704Z,20.73
2022-11-10T16:01:21.114Z,20.27
2022-11-10T16:06:17.446Z,21.17
2022-11-10T16:11:18.720Z,20.95
2022-11-10T16:16:17.323Z,19.73
2022-11-10T16:21:23.708Z,19.92
2022-11-10T16:26:22.644Z,17.63
2022-11-10T16:31:20.122Z,18.67
2022-11-10T16:36:24.777Z,17.67
2022-11-10T16:41:21.582Z,17.58
2022-11-10T16:46:28.916Z,16.35
2022-11-10T16:51:37.046Z,17.35
2022-11-10T16:56:33.454Z,17.30
2022-11-10T17:01:30.949Z,16.63
2022-11-10T17:06:31.331Z,17.48
2022-11-10T17:11:27.742Z,17.90
2022-11-10T17:16:23.974Z,17.73
2022-11-10T17:21:21.369Z,17.20
2022-11-10T17:26:19.141Z,16.40
2022-11-10T17:31:16.783Z,16.35
2022-11-10T17:36:23.031Z,18.05
2022-11-10T17:41:20.223Z,18.05
2022-11-10T17:46:16.636Z,18.00
2022-11-10T17:51:19.602Z,17.40
2022-11-10T17:56:16.276Z,18.73
2022-11-10T18:01:19.289Z,17.85
2022-11-10T18:06:16.631Z,17.38
2022-11-10T18:11:14.231Z,18.00
2022-11-10T18:16:11.187Z,17.30
2022-11-10T18:21:07.773Z,17.20
2022-11-10T18:26:08.084Z,18.52
2022-11-10T18:31:08.023Z,17.63
2022-11-10T18:36:04.423Z,17.88
2022-11-10T18:41:24.413Z,18.80
2022-11-10T18:46:20.744Z,17.85
2022-11-10T18:51:17.033Z,18.42
2022-11-10T18:56:14.257Z,18.13
2022-11-10T19:01:10.789Z,17.58
2022-11-10T19:06:07.155Z,16.60
2022-11-10T19:11:07.438Z,17.23
2022-11-10T19:16:14.175Z,17.67
2022-11-10T19:21:11.822Z,18.17
2022-11-10T19:26:10.243Z,16.52
2022-11-10T19:31:09.747Z,17.70
2022-11-10T19:36:07.672Z,16.88
2022-11-10T19:41:08.458Z,17.98
2022-11-10T19:46:06.127Z,15.57
2022-11-10T19:51:03.157Z,16.30
2022-11-10T19:56:00.418Z,15.40
2022-11-10T20:00:56.983Z,16.10
2022-11-10T20:06:00.663Z,15.77
2022-11-10T20:11:07.649Z,15.73
2022-11-10T20:16:04.566Z,15.10
2022-11-10T20:21:08.200Z,14.60
2022-11-10T20:26:14.390Z,15.63
2022-11-10T20:31:12.968Z,15.95
2022-11-10T20:36:19.934Z,15.05
2022-11-10T20:41:18.565Z,14.35
2022-11-10T20:46:33.368Z,14.23
2022-11-10T20:51:29.923Z,14.20
2022-11-10T20:56:29.638Z,14.38
2022-11-10T21:01:26.587Z,13.85
2022-11-10T21:06:22.886Z,13.68
2022-11-10T21:11:37.932Z,14.40
2022-11-10T21:16:34.214Z,13.93
2022-11-10T21:21:36.120Z,14.80
2022-11-10T21:26:34.088Z,13.37
2022-11-10T21:31:30.770Z,14.52
2022-11-10T21:36:29.268Z,15.20
2022-11-10T21:41:26.186Z,14.32
2022-11-10T21:46:22.389Z,15.70
2022-11-10T21:51:20.947Z,14.38
2022-11-10T21:56:17.506Z,15.07
2022-11-10T22:01:15.904Z,13.93
2022-11-10T22:06:13.391Z,14.77
2022-11-10T22:11:32.617Z,15.13
2022-11-10T22:16:51.517Z,14.25
2022-11-10T22:21:48.760Z,14.55
2022-11-10T22:26:44.972Z,14.38
2022-11-10T22:31:41.415Z,14.30
2022-11-10T22:36:37.613Z,15.68
2022-11-10T22:41:52.520Z,15.27
2022-11-10T22:46:50.919Z,16.20
2022-11-10T22:51:48.307Z,14.85
2022-11-10T22:56:44.721Z,15.77
2022-11-10T23:01:41.932Z,15.02
2022-11-10T23:06:38.510Z,14.32
2022-11-10T23:11:34.969Z,15.63
2022-11-10T23:16:32.763Z,15.40
2022-11-10T23:21:29.601Z,16.65
2022-11-10T23:26:27.403Z,14.75
2022-11-10T23:31:24.657Z,16.80
2022-11-10T23:36:21.757Z,15.85
2022-11-10T23:41:18.900Z,17.90
2022-11-10T23:46:15.130Z,16.70
2022-11-10T23:51:12.772Z,18.38
2022-11-10T23:56:10.824Z,16.95
